createdAt,value
2022-12-02T00:01:13.445Z,12.90
2022-12-02T00:03:40.808Z,13.10
2022-12-02T00:06:36.441Z,14.88
2022-12-02T00:09:16.719Z,14.07
2022-12-02T00:11:45.874Z,11.23
2022-12-02T00:14:22.462Z,13.13
2022-12-02T00:16:49.704Z,15.07
2022-12-02T00:19:16.245Z,14.88
2022-12-02T00:21:43.242Z,13.32
2022-12-02T00:24:09.706Z,12.23
2022-12-02T00:26:36.392Z,14.38
2022-12-02T00:29:02.961Z,14.70
2022-12-02T00:31:29.488Z,16.35
2022-12-02T00:33:58.097Z,10.27
2022-12-02T00:36:24.714Z,14.60
2022-12-02T00:38:51.218Z,11.48
2022-12-02T00:41:17.699Z,13.88
2022-12-02T00:44:02.806Z,10.45
2022-12-02T00:46:31.997Z,12.43
2022-12-02T00:49:18.907Z,11.82
2022-12-02T00:51:45.963Z,10.23
2022-12-02T00:54:13.763Z,13.68
2022-12-02T00:56:40.890Z,10.13
2022-12-02T00:59:07.389Z,10.10
2022-12-02T01:01:35.842Z,10.88
2022-12-02T01:04:02.914Z,9.82
2022-12-02T01:06:29.413Z,14.48
2022-12-02T01:08:55.920Z,12.35
2022-12-02T01:11:22.760Z,11.60
2022-12-02T01:13:49.289Z,13.18
2022-12-02T01:16:16.238Z,12.98
2022-12-02T01:18:42.762Z,13.30
2022-12-02T01:21:09.275Z,13.32
2022-12-02T01:23:35.890Z,13.63
2022-12-02T01:26:02.401Z,11.07
2022-12-02T01:28:28.884Z,13.52
2022-12-02T01:30:55.362Z,14.00
2022-12-02T01:33:21.867Z,11.95
2022-12-02T01:35:48.354Z,13.00
2022-12-02T01:38:14.927Z,12.45
2022-12-02T01:40:42.005Z,14.15
2022-12-02T01:43:08.595Z,14.20
2022-12-02T01:45:35.504Z,13.32
2022-12-02T01:48:02.789Z,14.30
2022-12-02T01:50:30.309Z,13.73
2022-12-02T01:52:58.488Z,13.43
2022-12-02T01:55:27.128Z,11.43
2022-12-02T01:57:53.876Z,14.35
2022-12-02T02:00:20.607Z,13.38
2022-12-02T02:02:47.306Z,12.23
2022-12-02T02:05:18.185Z,13.27
2022-12-02T02:07:48.334Z,12.48
2022-12-02T02:10:15.502Z,13.05
2022-12-02T02:12:42.167Z,13.10
2022-12-02T02:15:11.273Z,13.23
2022-12-02T02:17:38.074Z,13.00
2022-12-02T02:20:08.451Z,12.70
2022-12-02T02:22:55.081Z,13.80
2022-12-02T02:25:21.619Z,14.07
2022-12-02T02:28:00.429Z,14.27
2022-12-02T02:30:33.174Z,13.63
2022-12-02T02:33:02.926Z,12.10
2022-12-02T02:35:34.687Z,11.57
2022-12-02T02:38:01.854Z,15.15
2022-12-02T02:40:29.336Z,14.10
2022-12-02T02:43:00.480Z,13.82
2022-12-02T02:47:56.190Z,12.90
2022-12-02T02:50:24.537Z,12.70
2022-12-02T02:52:51.910Z,12.95
2022-12-02T02:55:22.354Z,12.60
2022-12-02T02:57:49.714Z,13.90
2022-12-02T03:00:19.373Z,13.50
2022-12-02T03:02:51.079Z,13.98
2022-12-02T03:05:19.074Z,12.70
2022-12-02T03:07:46.298Z,13.65
2022-12-02T03:10:13.387Z,13.82
2022-12-02T03:12:40.689Z,14.07
2022-12-02T03:15:09.418Z,10.98
2022-12-02T03:17:37.131Z,14.35
2022-12-02T03:20:04.431Z,12.68
2022-12-02T03:22:31.437Z,13.73
2022-12-02T03:24:58.285Z,13.27
2022-12-02T03:27:25.151Z,13.32
2022-12-02T03:29:52.062Z,13.90
2022-12-02T03:32:18.702Z,12.18
2022-12-02T03:34:45.464Z,12.38
2022-12-02T03:37:12.156Z,11.82
2022-12-02T03:39:39.122Z,13.65
2022-12-02T03:42:05.863Z,12.98
2022-12-02T03:44:32.465Z,14.13
2022-12-02T03:46:59.218Z,13.82
2022-12-02T03:49:26.031Z,14.88
2022-12-02T03:51:55.751Z,14.55
2022-12-02T03:54:22.226Z,11.52
2022-12-02T03:56:48.766Z,15.50
2022-12-02T03:59:27.820Z,13.52
2022-12-02T04:01:55.737Z,13.02
2022-12-02T04:04:22.362Z,14.68
2022-12-02T04:06:48.842Z,14.30
2022-12-02T04:09:15.343Z,13.27
2022-12-02T04:11:41.904Z,14.18
2022-12-02T04:14:08.402Z,15.00
2022-12-02T04:16:34.900Z,14.68
2022-12-02T04:19:01.455Z,15.35
2022-12-02T04:21:27.942Z,13.88
2022-12-02T04:23:54.593Z,14.63
2022-12-02T04:26:21.312Z,14.63
2022-12-02T04:28:47.795Z,13.63
2022-12-02T04:31:14.558Z,14.85
2022-12-02T04:33:41.089Z,13.02
2022-12-02T04:36:08.252Z,15.07
2022-12-02T04:38:34.780Z,14.98
2022-12-02T04:41:01.299Z,19.15
2022-12-02T04:43:27.799Z,14.85
2022-12-02T04:45:54.347Z,13.75
2022-12-02T04:48:20.827Z,14.23
2022-12-02T04:50:47.366Z,11.98
2022-12-02T04:53:13.904Z,12.95
2022-12-02T04:55:40.371Z,11.68
2022-12-02T04:58:06.891Z,12.00
2022-12-02T05:00:33.420Z,13.52
2022-12-02T05:02:59.935Z,13.30
2022-12-02T05:05:26.535Z,13.00
2022-12-02T05:07:53.086Z,12.43
2022-12-02T05:10:19.578Z,11.90
2022-12-02T05:12:46.062Z,12.05
2022-12-02T05:15:14.766Z,13.60
2022-12-02T05:17:42.450Z,12.30
2022-12-02T05:20:09.643Z,9.93
2022-12-02T05:22:36.147Z,11.73
2022-12-02T05:25:02.692Z,13.07
2022-12-02T05:27:35.012Z,11.57
2022-12-02T05:30:02.295Z,11.65
2022-12-02T05:32:28.838Z,11.40
2022-12-02T05:34:55.362Z,11.85
2022-12-02T05:37:21.823Z,13.27
2022-12-02T05:39:48.363Z,10.73
2022-12-02T05:42:15.400Z,13.10
2022-12-02T05:44:44.015Z,11.10
2022-12-02T05:47:13.962Z,10.35
2022-12-02T05:49:42.325Z,10.52
2022-12-02T05:52:17.725Z,10.15
2022-12-02T05:54:44.400Z,11.50
2022-12-02T05:57:12.093Z,12.73
2022-12-02T05:59:38.660Z,11.90
2022-12-02T06:02:15.003Z,12.13
2022-12-02T06:04:41.831Z,11.55
2022-12-02T06:07:12.166Z,12.32
2022-12-02T06:09:38.797Z,12.18
2022-12-02T06:12:14.640Z,12.88
2022-12-02T06:14:47.292Z,11.10
2022-12-02T06:17:16.387Z,12.57
2022-12-02T06:19:53.541Z,13.45
2022-12-02T06:24:51.333Z,10.98
2022-12-02T06:27:19.082Z,13.07
2022-12-02T06:29:50.079Z,12.43
2022-12-02T06:32:22.715Z,11.93
2022-12-02T06:34:52.557Z,11.45
2022-12-02T06:37:25.102Z,13.77
2022-12-02T06:42:46.955Z,13.27
2022-12-02T06:45:13.714Z,11.30
2022-12-02T06:47:42.958Z,12.60
2022-12-02T06:50:25.640Z,10.18
2022-12-02T06:52:52.849Z,11.77
2022-12-02T06:55:22.041Z,11.13
2022-12-02T06:57:48.860Z,9.63
2022-12-02T07:00:16.056Z,8.25
2022-12-02T07:02:43.821Z,12.05
2022-12-02T07:05:18.926Z,11.90
2022-12-02T07:07:45.486Z,10.75
2022-12-02T07:10:25.361Z,12.35
2022-12-02T07:12:52.827Z,10.05
2022-12-02T07:15:34.273Z,12.80
2022-12-02T07:18:14.840Z,13.80
2022-12-02T07:20:44.303Z,11.80
2022-12-02T07:23:21.240Z,13.05
2022-12-02T07:25:51.542Z,11.68
2022-12-02T07:28:40.057Z,8.27
2022-12-02T07:31:23.110Z,12.40
2022-12-02T07:36:16.819Z,13.05
2022-12-02T07:39:05.188Z,13.85
2022-12-02T07:41:36.148Z,12.13
2022-12-02T07:44:03.965Z,11.55
2022-12-02T07:46:30.551Z,13.25
2022-12-02T07:48:57.705Z,11.63
2022-12-02T07:51:24.795Z,13.88
2022-12-02T07:53:51.333Z,13.60
2022-12-02T07:56:18.682Z,13.10
2022-12-02T08:01:34.590Z,9.07
2022-12-02T08:04:01.223Z,13.82
2022-12-02T08:06:27.913Z,10.48
2022-12-02T08:08:54.372Z,12.70
2022-12-02T08:11:21.235Z,15.10
2022-12-02T08:13:47.707Z,13.70
2022-12-02T08:16:14.282Z,15.60
2022-12-02T08:18:41.844Z,13.63
2022-12-02T08:21:09.338Z,14.77
2022-12-02T08:23:36.598Z,15.07
2022-12-02T08:26:03.868Z,11.25
2022-12-02T08:28:30.613Z,12.77
2022-12-02T08:30:58.710Z,13.52
2022-12-02T08:33:25.892Z,14.50
2022-12-02T08:35:52.574Z,13.00
2022-12-02T08:38:19.631Z,15.23
2022-12-02T08:40:46.288Z,13.10
2022-12-02T08:43:13.104Z,15.85
2022-12-02T08:45:39.741Z,14.13
2022-12-02T08:48:06.309Z,16.85
2022-12-02T08:50:32.913Z,13.13
2022-12-02T08:52:59.471Z,14.48
2022-12-02T08:55:27.474Z,14.38
2022-12-02T08:57:54.002Z,14.43
2022-12-02T09:00:21.725Z,13.10
2022-12-02T09:02:48.953Z,15.60
2022-12-02T09:05:15.863Z,14.95
2022-12-02T09:07:42.476Z,12.73
2022-12-02T09:10:10.612Z,13.32
2022-12-02T09:12:37.275Z,14.88
2022-12-02T09:15:04.227Z,15.27
2022-12-02T09:17:30.981Z,14.45
2022-12-02T09:19:57.450Z,12.98
2022-12-02T09:22:24.071Z,10.30
2022-12-02T09:24:50.904Z,13.65
2022-12-02T09:27:17.514Z,14.13
2022-12-02T09:29:44.003Z,14.68
2022-12-02T09:32:10.546Z,10.15
2022-12-02T09:34:37.023Z,12.85
2022-12-02T09:37:03.580Z,15.73
2022-12-02T09:39:32.936Z,15.10
2022-12-02T09:42:02.398Z,15.55
2022-12-02T09:44:29.624Z,15.10
2022-12-02T09:46:56.589Z,14.77
2022-12-02T09:49:23.966Z,14.93
2022-12-02T09:51:52.934Z,15.90
2022-12-02T09:54:20.275Z,14.48
2022-12-02T09:56:47.930Z,18.75
2022-12-02T09:59:16.913Z,14.73
2022-12-02T10:01:47.246Z,17.70
2022-12-02T10:04:18.470Z,17.80
2022-12-02T10:09:17.170Z,16.10
2022-12-02T10:11:44.610Z,18.40
2022-12-02T10:14:15.354Z,17.88
2022-12-02T10:16:42.366Z,13.23
2022-12-02T10:19:17.079Z,14.77
2022-12-02T10:21:43.699Z,11.05
2022-12-02T10:24:11.900Z,15.68
2022-12-02T10:26:45.350Z,15.18
2022-12-02T10:29:17.451Z,16.95
2022-12-02T10:31:55.397Z,13.70
2022-12-02T10:34:22.819Z,15.77
2022-12-02T10:36:50.051Z,18.25
2022-12-02T10:39:24.521Z,19.35
2022-12-02T10:42:09.294Z,18.60
2022-12-02T10:44:42.779Z,13.98
2022-12-02T10:47:25.434Z,16.90
2022-12-02T10:49:57.303Z,18.88
2022-12-02T10:52:28.348Z,16.60
2022-12-02T10:54:57.686Z,18.38
2022-12-02T10:57:30.216Z,14.70
2022-12-02T10:59:59.328Z,18.40
2022-12-02T11:02:40.770Z,21.67
2022-12-02T11:05:20.926Z,18.02
2022-12-02T11:07:56.051Z,19.02
2022-12-02T11:10:25.774Z,17.85
2022-12-02T11:12:52.177Z,16.95
2022-12-02T11:15:45.166Z,17.42
2022-12-02T11:18:25.170Z,16.63
2022-12-02T11:20:55.363Z,13.02
2022-12-02T11:23:23.825Z,16.20
2022-12-02T11:25:58.539Z,15.88
2022-12-02T11:28:28.079Z,13.63
2022-12-02T11:31:22.151Z,13.15
2022-12-02T11:33:54.686Z,15.32
2022-12-02T11:36:29.788Z,13.02
2022-12-02T11:39:10.443Z,16.15
2022-12-02T11:41:48.878Z,17.25
2022-12-02T11:44:29.555Z,15.57
2022-12-02T11:47:00.129Z,16.83
2022-12-02T11:49:40.232Z,17.02
2022-12-02T11:52:24.002Z,16.90
2022-12-02T11:54:55.530Z,16.77
2022-12-02T11:57:41.668Z,17.85
2022-12-02T12:00:26.462Z,16.90
2022-12-02T12:03:06.729Z,13.88
2022-12-02T12:05:33.716Z,27.85
2022-12-02T12:08:03.338Z,16.75
2022-12-02T12:10:39.649Z,17.83
2022-12-02T12:13:16.475Z,17.00
2022-12-02T12:15:50.510Z,14.88
2022-12-02T12:18:37.273Z,17.02
2022-12-02T12:21:04.397Z,18.02
2022-12-02T12:23:37.308Z,18.73
2022-12-02T12:26:05.333Z,14.98
2022-12-02T12:28:34.754Z,18.98
2022-12-02T12:31:02.855Z,18.55
2022-12-02T12:33:29.713Z,17.88
2022-12-02T12:35:57.432Z,17.67
2022-12-02T12:38:30.368Z,17.58
2022-12-02T12:40:58.270Z,16.52
2022-12-02T12:43:25.128Z,16.13
2022-12-02T12:45:51.895Z,23.02
2022-12-02T12:48:18.563Z,15.85
2022-12-02T12:50:45.170Z,16.45
2022-12-02T12:53:12.024Z,17.60
2022-12-02T12:55:38.535Z,17.40
2022-12-02T12:58:05.084Z,12.85
2022-12-02T13:00:31.647Z,14.90
2022-12-02T13:02:58.170Z,12.73
2022-12-02T13:05:24.750Z,18.02
2022-12-02T13:07:51.338Z,16.38
2022-12-02T13:10:20.246Z,16.25
2022-12-02T13:12:46.947Z,17.60
2022-12-02T13:15:13.798Z,19.15
2022-12-02T13:17:44.276Z,15.73
2022-12-02T13:20:14.539Z,17.77
2022-12-02T13:22:41.226Z,15.07
2022-12-02T13:25:08.169Z,15.95
2022-12-02T13:27:36.001Z,20.55
2022-12-02T13:30:02.731Z,17.15
2022-12-02T13:32:29.465Z,19.25
2022-12-02T13:34:56.064Z,18.17
2022-12-02T13:37:22.683Z,18.95
2022-12-02T13:39:49.341Z,17.33
2022-12-02T13:42:16.022Z,17.35
2022-12-02T13:44:42.701Z,17.77
2022-12-02T13:47:09.302Z,16.50
2022-12-02T13:49:35.967Z,17.48
2022-12-02T13:52:02.553Z,19.33
2022-12-02T13:54:29.250Z,17.92
2022-12-02T13:56:56.074Z,19.67
2022-12-02T13:59:23.272Z,16.95
2022-12-02T14:01:50.153Z,17.98
2022-12-02T14:04:17.067Z,19.13
2022-12-02T14:06:44.036Z,17.00
2022-12-02T14:09:10.729Z,14.43
2022-12-02T14:11:37.714Z,18.08
2022-12-02T14:14:04.483Z,14.13
2022-12-02T14:16:31.171Z,15.40
2022-12-02T14:18:58.043Z,17.30
2022-12-02T14:21:25.423Z,15.15
2022-12-02T14:23:52.134Z,12.50
2022-12-02T14:26:18.696Z,15.57
2022-12-02T14:28:45.200Z,19.55
2022-12-02T14:31:23.546Z,18.60
2022-12-02T14:34:12.923Z,18.33
2022-12-02T14:36:41.367Z,16.98
2022-12-02T14:39:07.898Z,16.02
2022-12-02T14:41:34.487Z,15.80
2022-12-02T14:44:00.972Z,19.90
2022-12-02T14:46:30.474Z,19.65
2022-12-02T14:49:23.133Z,18.27
2022-12-02T14:51:44.067Z,16.77
2022-12-02T14:54:10.662Z,18.08
2022-12-02T14:56:37.143Z,17.02
2022-12-02T14:59:07.146Z,18.50
2022-12-02T15:01:37.243Z,16.55
2022-12-02T15:04:03.868Z,16.05
2022-12-02T15:06:30.434Z,15.68
2022-12-02T15:08:56.955Z,16.60
2022-12-02T15:11:23.495Z,19.00
2022-12-02T15:13:49.966Z,11.10
2022-12-02T15:16:16.519Z,21.23
2022-12-02T15:18:43.075Z,19.65
2022-12-02T15:21:13.516Z,14.57
2022-12-02T15:23:40.408Z,18.60
2022-12-02T15:26:06.931Z,16.60
2022-12-02T15:28:33.625Z,19.27
2022-12-02T15:31:00.511Z,17.83
2022-12-02T15:33:27.119Z,20.55
2022-12-02T15:35:53.634Z,18.88
2022-12-02T15:38:20.219Z,17.67
2022-12-02T15:40:46.703Z,16.70
2022-12-02T15:43:13.272Z,19.05
2022-12-02T15:45:40.406Z,17.30
2022-12-02T15:48:06.951Z,17.75
2022-12-02T15:50:33.479Z,14.55
2022-12-02T15:53:00.026Z,19.98
2022-12-02T15:55:26.532Z,16.63
2022-12-02T15:57:53.096Z,12.10
2022-12-02T16:00:20.137Z,19.77
2022-12-02T16:02:50.035Z,18.52
2022-12-02T16:05:21.126Z,18.08
2022-12-02T16:07:47.807Z,19.17
2022-12-02T16:10:14.436Z,19.42
2022-12-02T16:12:43.483Z,19.08
2022-12-02T16:15:10.700Z,19.67
2022-12-02T16:17:37.278Z,17.42
2022-12-02T16:20:07.597Z,21.73
2022-12-02T16:22:37.450Z,20.55
2022-12-02T16:25:04.887Z,22.00
2022-12-02T16:27:32.564Z,17.70
2022-12-02T16:29:59.164Z,20.98
2022-12-02T16:32:25.822Z,16.13
2022-12-02T16:34:52.590Z,20.92
2022-12-02T16:37:21.748Z,21.15
2022-12-02T16:39:48.423Z,23.30
2022-12-02T16:42:14.918Z,17.25
2022-12-02T16:44:41.459Z,18.35
2022-12-02T16:47:08.046Z,19.25
2022-12-02T16:49:34.601Z,19.25
2022-12-02T16:52:01.288Z,23.25
2022-12-02T16:54:28.906Z,20.40
2022-12-02T16:56:56.295Z,19.38
2022-12-02T16:59:24.490Z,20.20
2022-12-02T17:01:51.148Z,20.40
2022-12-02T17:04:17.928Z,19.60
2022-12-02T17:06:45.750Z,20.70
2022-12-02T17:09:12.799Z,22.92
2022-12-02T17:11:39.377Z,16.23
2022-12-02T17:14:05.979Z,18.60
2022-12-02T17:16:32.574Z,19.50
2022-12-02T17:18:59.204Z,19.25
2022-12-02T17:21:25.693Z,14.57
2022-12-02T17:23:52.176Z,20.15
2022-12-02T17:26:18.719Z,19.73
2022-12-02T17:28:45.737Z,21.02
2022-12-02T17:31:13.388Z,17.60
2022-12-02T17:33:40.004Z,19.73
2022-12-02T17:36:07.842Z,15.93
2022-12-02T17:38:55.490Z,21.10
2022-12-02T17:41:24.967Z,19.67
2022-12-02T17:43:51.999Z,19.13
2022-12-02T17:46:19.873Z,20.50
2022-12-02T17:48:46.756Z,20.15
2022-12-02T17:51:13.956Z,19.45
2022-12-02T17:53:40.912Z,17.92
2022-12-02T17:56:08.790Z,20.85
2022-12-02T17:58:35.732Z,19.65
2022-12-02T18:01:09.552Z,15.57
2022-12-02T18:03:39.662Z,17.73
2022-12-02T18:06:07.122Z,22.10
2022-12-02T18:08:34.112Z,23.60
2022-12-02T18:11:00.963Z,18.27
2022-12-02T18:13:30.291Z,21.40
2022-12-02T18:15:56.853Z,16.98
2022-12-02T18:18:23.578Z,20.50
2022-12-02T18:20:50.103Z,22.42
2022-12-02T18:23:16.621Z,14.63
2022-12-02T18:25:43.107Z,19.00
2022-12-02T18:28:09.573Z,20.98
2022-12-02T18:30:36.167Z,22.67
2022-12-02T18:33:02.839Z,19.95
2022-12-02T18:35:29.362Z,21.13
2022-12-02T18:37:55.904Z,20.85
2022-12-02T18:40:22.535Z,20.95
2022-12-02T18:42:49.074Z,22.17
2022-12-02T18:45:16.892Z,23.75
2022-12-02T18:47:43.587Z,22.02
2022-12-02T18:50:11.497Z,17.67
2022-12-02T18:52:38.263Z,22.27
2022-12-02T18:55:05.995Z,23.75
2022-12-02T18:57:32.646Z,20.40
2022-12-02T18:59:59.201Z,22.90
2022-12-02T19:02:25.733Z,23.15
2022-12-02T19:04:52.683Z,25.67
2022-12-02T19:07:19.465Z,17.58
2022-12-02T19:09:51.547Z,23.08
2022-12-02T19:12:20.146Z,24.38
2022-12-02T19:14:46.637Z,22.92
2022-12-02T19:17:13.140Z,24.35
2022-12-02T19:19:39.990Z,19.80
2022-12-02T19:22:06.701Z,24.33
2022-12-02T19:24:33.208Z,22.45
2022-12-02T19:27:00.092Z,23.70
2022-12-02T19:29:26.590Z,22.25
2022-12-02T19:31:53.323Z,24.50
2022-12-02T19:34:20.306Z,24.20
2022-12-02T19:36:46.867Z,23.45
2022-12-02T19:39:15.232Z,20.33
2022-12-02T19:41:42.675Z,23.25
2022-12-02T19:44:09.257Z,24.00
2022-12-02T19:46:35.869Z,17.42
2022-12-02T19:49:03.009Z,24.60
2022-12-02T19:51:29.926Z,23.95
2022-12-02T19:53:58.309Z,18.05
2022-12-02T19:56:25.411Z,26.08
2022-12-02T19:58:52.066Z,23.05
2022-12-02T20:01:18.599Z,25.30
2022-12-02T20:03:45.385Z,21.45
2022-12-02T20:06:11.904Z,25.35
2022-12-02T20:08:38.506Z,24.85
2022-12-02T20:11:05.217Z,23.25
2022-12-02T20:13:31.772Z,24.80
2022-12-02T20:15:59.022Z,23.95
2022-12-02T20:18:26.232Z,17.80
2022-12-02T20:20:52.787Z,23.23
2022-12-02T20:23:19.270Z,23.52
2022-12-02T20:25:45.834Z,25.38
2022-12-02T20:28:12.322Z,22.65
2022-12-02T20:30:38.906Z,25.00
2022-12-02T20:33:05.440Z,22.63
2022-12-02T20:35:32.049Z,27.23
2022-12-02T20:38:00.381Z,25.67
2022-12-02T20:40:26.861Z,25.80
2022-12-02T20:42:53.608Z,25.05
2022-12-02T20:45:20.812Z,24.38
2022-12-02T20:47:48.044Z,28.40
2022-12-02T20:50:14.516Z,25.67
2022-12-02T20:52:41.038Z,22.13
2022-12-02T20:55:08.459Z,22.02
2022-12-02T20:57:34.933Z,25.48
2022-12-02T21:00:01.563Z,27.65
2022-12-02T21:02:28.193Z,26.83
2022-12-02T21:04:55.213Z,26.83
2022-12-02T21:07:21.996Z,27.27
2022-12-02T21:09:48.466Z,25.98
2022-12-02T21:12:15.340Z,25.40
2022-12-02T21:14:41.845Z,26.25
2022-12-02T21:17:08.378Z,22.50
2022-12-02T21:19:34.856Z,23.25
2022-12-02T21:22:01.361Z,23.58
2022-12-02T21:24:29.277Z,16.58
2022-12-02T21:26:55.784Z,21.00
2022-12-02T21:29:22.403Z,21.50
2022-12-02T21:31:48.991Z,23.02
2022-12-02T21:34:15.479Z,24.33
2022-12-02T21:36:42.033Z,26.83
2022-12-02T21:39:09.810Z,22.90
2022-12-02T21:41:36.298Z,19.60
2022-12-02T21:44:02.798Z,20.88
2022-12-02T21:46:29.460Z,24.00
2022-12-02T21:48:56.059Z,23.48
2022-12-02T21:51:22.714Z,20.02
2022-12-02T21:53:49.270Z,22.13
2022-12-02T21:56:16.706Z,26.23
2022-12-02T21:58:44.210Z,25.58
2022-12-02T22:01:34.132Z,22.83
2022-12-02T22:04:00.698Z,18.50
2022-12-02T22:06:27.195Z,24.42
2022-12-02T22:08:53.648Z,21.52
2022-12-02T22:11:20.188Z,20.98
2022-12-02T22:13:46.748Z,15.13
2022-12-02T22:16:13.341Z,23.08
2022-12-02T22:18:39.926Z,24.38
2022-12-02T22:21:06.698Z,22.48
2022-12-02T22:23:33.272Z,22.85
2022-12-02T22:25:59.910Z,23.20
2022-12-02T22:28:26.487Z,23.40
2022-12-02T22:30:53.028Z,16.45
2022-12-02T22:33:19.958Z,21.88
2022-12-02T22:35:46.495Z,23.20
2022-12-02T22:38:13.544Z,24.50
2022-12-02T22:40:40.029Z,19.63
2022-12-02T22:43:06.613Z,20.10
2022-12-02T22:45:33.146Z,25.13
2022-12-02T22:47:59.702Z,22.27
2022-12-02T22:50:27.138Z,19.17
2022-12-02T22:52:53.651Z,22.83
2022-12-02T22:55:20.141Z,18.65
2022-12-02T22:57:46.634Z,22.60
2022-12-02T23:00:15.078Z,21.42
2022-12-02T23:02:41.661Z,22.60
2022-12-02T23:05:08.704Z,24.13
2022-12-02T23:07:35.184Z,23.98
2022-12-02T23:10:01.960Z,21.55
2022-12-02T23:12:28.521Z,23.00
2022-12-02T23:15:14.979Z,23.15
2022-12-02T23:17:42.761Z,21.67
2022-12-02T23:20:09.799Z,26.73
2022-12-02T23:22:36.457Z,20.45
2022-12-02T23:25:03.760Z,23.95
2022-12-02T23:27:30.255Z,23.17
2022-12-02T23:29:58.673Z,19.60
2022-12-02T23:32:25.130Z,23.67
2022-12-02T23:34:51.868Z,17.65
2022-12-02T23:37:18.534Z,21.95
2022-12-02T23:39:46.673Z,22.10
2022-12-02T23:42:13.142Z,21.35
2022-12-02T23:44:39.635Z,22.58
2022-12-02T23:47:06.150Z,21.00
2022-12-02T23:49:32.678Z,19.85
2022-12-02T23:51:59.155Z,20.85
2022-12-02T23:54:25.670Z,21.33
2022-12-02T23:56:52.126Z,21.00
2022-12-02T23:59:18.708Z,22.17
